sensor_id;sensor_type;location;lat;lon;timestamp;pressure;altitude;pressure_sealevel;temperature;humidity
60319;BME280;46163;52.306;5.634;2022-08-19T00:01:59;101240.59;;;24.00;58.54
60319;BME280;46163;52.306;5.634;2022-08-19T00:04:29;101242.50;;;23.99;58.60
60319;BME280;46163;52.306;5.634;2022-08-19T00:06:55;101246.31;;;23.98;58.79
60319;BME280;46163;52.306;5.634;2022-08-19T00:09:22;101243.59;;;23.98;58.44
60319;BME280;46163;52.306;5.634;2022-08-19T00:11:48;101240.31;;;23.96;58.56
60319;BME280;46163;52.306;5.634;2022-08-19T00:14:16;101247.66;;;23.95;58.66
60319;BME280;46163;52.306;5.634;2022-08-19T00:16:44;101243.91;;;23.91;58.59
60319;BME280;46163;52.306;5.634;2022-08-19T00:19:10;101250.66;;;23.94;58.39
60319;BME280;46163;52.306;5.634;2022-08-19T00:21:36;101254.47;;;23.93;58.66
60319;BME280;46163;52.306;5.634;2022-08-19T00:24:09;101263.44;;;23.93;58.55
60319;BME280;46163;52.306;5.634;2022-08-19T00:26:36;101252.03;;;23.91;58.59
60319;BME280;46163;52.306;5.634;2022-08-19T00:29:03;101249.63;;;23.90;58.57
60319;BME280;46163;52.306;5.634;2022-08-19T00:31:29;101249.88;;;23.88;58.80
60319;BME280;46163;52.306;5.634;2022-08-19T00:33:56;101241.47;;;23.90;58.68
60319;BME280;46163;52.306;5.634;2022-08-19T00:36:23;101246.34;;;23.88;58.77
60319;BME280;46163;52.306;5.634;2022-08-19T00:38:52;101245.53;;;23.87;58.53
60319;BME280;46163;52.306;5.634;2022-08-19T00:41:20;101243.09;;;23.86;58.50
60319;BME280;46163;52.306;5.634;2022-08-19T00:44:11;101250.16;;;23.87;58.56
60319;BME280;46163;52.306;5.634;2022-08-19T00:46:41;101243.91;;;23.86;58.67
60319;BME280;46163;52.306;5.634;2022-08-19T00:51:59;101236.03;;;23.85;58.51
60319;BME280;46163;52.306;5.634;2022-08-19T00:54:26;101243.66;;;23.83;58.75
60319;BME280;46163;52.306;5.634;2022-08-19T00:56:52;101233.09;;;23.76;58.40
60319;BME280;46163;52.306;5.634;2022-08-19T00:59:19;101231.97;;;23.82;58.48
60319;BME280;46163;52.306;5.634;2022-08-19T01:01:45;101235.00;;;23.81;58.59
60319;BME280;46163;52.306;5.634;2022-08-19T01:04:12;101236.06;;;23.80;59.02
60319;BME280;46163;52.306;5.634;2022-08-19T01:06:39;101236.06;;;23.80;58.48
60319;BME280;46163;52.306;5.634;2022-08-19T01:09:18;101235.25;;;23.79;58.57
60319;BME280;46163;52.306;5.634;2022-08-19T01:11:44;101242.59;;;23.79;58.34
60319;BME280;46163;52.306;5.634;2022-08-19T01:14:14;101241.25;;;23.76;58.44
60319;BME280;46163;52.306;5.634;2022-08-19T01:16:42;101238.53;;;23.76;58.63
60319;BME280;46163;52.306;5.634;2022-08-19T01:19:39;101236.09;;;23.75;58.78
60319;BME280;46163;52.306;5.634;2022-08-19T01:24:49;101245.34;;;23.74;58.85
60319;BME280;46163;52.306;5.634;2022-08-19T01:27:16;101235.00;;;23.71;58.53
60319;BME280;46163;52.306;5.634;2022-08-19T01:29:43;101238.28;;;23.73;58.54
60319;BME280;46163;52.306;5.634;2022-08-19T01:32:12;101242.34;;;23.70;58.72
60319;BME280;46163;52.306;5.634;2022-08-19T01:34:38;101242.06;;;23.72;58.64
60319;BME280;46163;52.306;5.634;2022-08-19T01:37:09;101237.72;;;23.71;58.65
60319;BME280;46163;52.306;5.634;2022-08-19T01:39:38;101233.66;;;23.68;58.39
60319;BME280;46163;52.306;5.634;2022-08-19T01:42:05;101234.47;;;23.68;58.39
60319;BME280;46163;52.306;5.634;2022-08-19T01:44:32;101235.56;;;23.67;58.43
60319;BME280;46163;52.306;5.634;2022-08-19T01:47:00;101229.34;;;23.67;58.38
60319;BME280;46163;52.306;5.634;2022-08-19T01:49:25;101236.66;;;23.66;58.49
60319;BME280;46163;52.306;5.634;2022-08-19T01:51:52;101228.53;;;23.66;58.73
60319;BME280;46163;52.306;5.634;2022-08-19T01:54:21;101224.47;;;23.64;58.72
60319;BME280;46163;52.306;5.634;2022-08-19T01:56:47;101229.91;;;23.64;58.72
60319;BME280;46163;52.306;5.634;2022-08-19T01:59:16;101234.53;;;23.63;58.45
60319;BME280;46163;52.306;5.634;2022-08-19T02:01:43;101232.63;;;23.64;58.46
60319;BME280;46163;52.306;5.634;2022-08-19T02:04:09;101244.81;;;23.61;58.60
60319;BME280;46163;52.306;5.634;2022-08-19T02:06:35;101251.34;;;23.60;58.59
60319;BME280;46163;52.306;5.634;2022-08-19T02:09:02;101247.53;;;23.61;58.76
60319;BME280;46163;52.306;5.634;2022-08-19T02:11:30;101251.34;;;23.60;58.43
60319;BME280;46163;52.306;5.634;2022-08-19T02:14:02;101240.75;;;23.59;58.70
60319;BME280;46163;52.306;5.634;2022-08-19T02:16:28;101244.31;;;23.59;58.60
60319;BME280;46163;52.306;5.634;2022-08-19T02:18:55;101241.03;;;23.57;58.62
60319;BME280;46163;52.306;5.634;2022-08-19T02:21:22;101241.03;;;23.57;58.24
60319;BME280;46163;52.306;5.634;2022-08-19T02:23:49;101239.41;;;23.56;58.34
60319;BME280;46163;52.306;5.634;2022-08-19T02:26:16;101234.25;;;23.55;58.47
60319;BME280;46163;52.306;5.634;2022-08-19T02:28:42;101229.88;;;23.54;58.57
60319;BME280;46163;52.306;5.634;2022-08-19T02:31:13;101234.50;;;23.53;58.75
60319;BME280;46163;52.306;5.634;2022-08-19T02:33:40;101241.03;;;23.52;58.65
60319;BME280;46163;52.306;5.634;2022-08-19T02:36:07;101241.84;;;23.53;58.63
60319;BME280;46163;52.306;5.634;2022-08-19T02:38:33;101249.19;;;23.52;58.38
60319;BME280;46163;52.306;5.634;2022-08-19T02:41:09;101251.09;;;23.52;58.65
60319;BME280;46163;52.306;5.634;2022-08-19T02:43:36;101243.22;;;23.45;58.70
60319;BME280;46163;52.306;5.634;2022-08-19T02:46:24;101259.53;;;23.50;58.44
60319;BME280;46163;52.306;5.634;2022-08-19T02:48:55;101262.50;;;23.49;58.45
60319;BME280;46163;52.306;5.634;2022-08-19T02:51:29;101258.19;;;23.48;58.88
60319;BME280;46163;52.306;5.634;2022-08-19T02:53:56;101251.94;;;23.47;58.79
60319;BME280;46163;52.306;5.634;2022-08-19T02:56:22;101243.22;;;23.45;58.74
60319;BME280;46163;52.306;5.634;2022-08-19T02:58:49;101242.16;;;23.46;58.73
60319;BME280;46163;52.306;5.634;2022-08-19T03:01:29;101240.50;;;23.45;58.56
60319;BME280;46163;52.306;5.634;2022-08-19T03:03:56;101243.22;;;23.45;58.45
60319;BME280;46163;52.306;5.634;2022-08-19T03:06:22;101246.22;;;23.44;58.26
60319;BME280;46163;52.306;5.634;2022-08-19T03:08:49;101259.00;;;23.43;58.53
60319;BME280;46163;52.306;5.634;2022-08-19T03:11:22;101260.09;;;23.42;58.44
60319;BME280;46163;52.306;5.634;2022-08-19T03:13:48;101253.84;;;23.41;58.46
60319;BME280;46163;52.306;5.634;2022-08-19T03:16:14;101250.31;;;23.41;58.50
60319;BME280;46163;52.306;5.634;2022-08-19T03:18:41;101254.94;;;23.40;58.59
60319;BME280;46163;52.306;5.634;2022-08-19T03:21:07;101241.63;;;23.39;58.70
60319;BME280;46163;52.306;5.634;2022-08-19T03:23:33;101251.41;;;23.40;58.58
60319;BME280;46163;52.306;5.634;2022-08-19T03:26:03;101254.41;;;23.38;58.29
60319;BME280;46163;52.306;5.634;2022-08-19T03:28:38;101248.97;;;23.38;58.54
60319;BME280;46163;52.306;5.634;2022-08-19T03:31:11;101254.69;;;23.37;58.44
60319;BME280;46163;52.306;5.634;2022-08-19T03:33:38;101247.34;;;23.37;58.63
60319;BME280;46163;52.306;5.634;2022-08-19T03:38:35;101250.31;;;23.36;58.41
60319;BME280;46163;52.306;5.634;2022-08-19T03:41:11;101250.88;;;23.33;58.48
60319;BME280;46163;52.306;5.634;2022-08-19T03:43:38;101250.88;;;23.33;58.70
60319;BME280;46163;52.306;5.634;2022-08-19T03:46:15;101247.88;;;23.34;58.53
60319;BME280;46163;52.306;5.634;2022-08-19T03:48:42;101252.50;;;23.34;58.73
60319;BME280;46163;52.306;5.634;2022-08-19T03:51:19;101250.06;;;23.32;58.82
60319;BME280;46163;52.306;5.634;2022-08-19T03:53:46;101241.09;;;23.32;58.64
60319;BME280;46163;52.306;5.634;2022-08-19T03:56:12;101257.41;;;23.32;58.59
60319;BME280;46163;52.306;5.634;2022-08-19T03:58:38;101256.59;;;23.31;58.83
60319;BME280;46163;52.306;5.634;2022-08-19T04:01:17;101260.13;;;23.32;58.53
60319;BME280;46163;52.306;5.634;2022-08-19T04:03:43;101252.25;;;23.30;58.81
60319;BME280;46163;52.306;5.634;2022-08-19T04:06:11;101250.34;;;23.31;58.54
60319;BME280;46163;52.306;5.634;2022-08-19T04:08:39;101247.09;;;23.29;58.80
60319;BME280;46163;52.306;5.634;2022-08-19T04:11:10;101249.00;;;23.28;58.79
60319;BME280;46163;52.306;5.634;2022-08-19T04:13:39;101252.78;;;23.27;58.53
60319;BME280;46163;52.306;5.634;2022-08-19T04:16:05;101249.25;;;23.27;58.87
60319;BME280;46163;52.306;5.634;2022-08-19T04:18:31;101239.47;;;23.26;58.79
60319;BME280;46163;52.306;5.634;2022-08-19T04:20:58;101231.34;;;23.26;58.73
60319;BME280;46163;52.306;5.634;2022-08-19T04:23:24;101232.44;;;23.25;58.87
60319;BME280;46163;52.306;5.634;2022-08-19T04:25:49;101231.63;;;23.24;58.66
60319;BME280;46163;52.306;5.634;2022-08-19T04:28:15;101237.06;;;23.24;58.85
60319;BME280;46163;52.306;5.634;2022-08-19T04:30:46;101233.00;;;23.22;58.69
60319;BME280;46163;52.306;5.634;2022-08-19T04:33:18;101233.81;;;23.22;58.77
60319;BME280;46163;52.306;5.634;2022-08-19T04:35:49;101229.47;;;23.21;58.53
60319;BME280;46163;52.306;5.634;2022-08-19T04:38:16;101228.91;;;23.19;58.67
60319;BME280;46163;52.306;5.634;2022-08-19T04:40:44;101237.03;;;23.19;58.57
60319;BME280;46163;52.306;5.634;2022-08-19T04:43:29;101223.47;;;23.19;58.62
60319;BME280;46163;52.306;5.634;2022-08-19T04:45:55;101224.31;;;23.20;58.62
60319;BME280;46163;52.306;5.634;2022-08-19T04:48:21;101228.09;;;23.19;58.41
60319;BME280;46163;52.306;5.634;2022-08-19T04:50:56;101212.66;;;23.14;58.44
60319;BME280;46163;52.306;5.634;2022-08-19T04:53:26;101213.69;;;23.18;58.52
60319;BME280;46163;52.306;5.634;2022-08-19T04:55:55;101222.94;;;23.17;58.97
60319;BME280;46163;52.306;5.634;2022-08-19T04:58:22;101225.41;;;23.13;58.60
60319;BME280;46163;52.306;5.634;2022-08-19T05:00:49;101224.84;;;23.17;58.63
60319;BME280;46163;52.306;5.634;2022-08-19T05:03:14;101227.84;;;23.15;58.57
60319;BME280;46163;52.306;5.634;2022-08-19T05:05:44;101227.84;;;23.15;58.51
60319;BME280;46163;52.306;5.634;2022-08-19T05:08:15;101215.63;;;23.07;58.91
60319;BME280;46163;52.306;5.634;2022-08-19T05:10:46;101233.03;;;23.11;58.61
60319;BME280;46163;52.306;5.634;2022-08-19T05:13:14;101229.22;;;23.12;58.59
60319;BME280;46163;52.306;5.634;2022-08-19T05:15:40;101235.44;;;23.08;58.80
60319;BME280;46163;52.306;5.634;2022-08-19T05:18:06;101237.06;;;23.09;58.55
60319;BME280;46163;52.306;5.634;2022-08-19T05:20:50;101247.66;;;23.10;58.57
60319;BME280;46163;52.306;5.634;2022-08-19T05:23:34;101239.50;;;23.10;58.96
60319;BME280;46163;52.306;5.634;2022-08-19T05:26:00;101222.97;;;23.02;58.73
60319;BME280;46163;52.306;5.634;2022-08-19T05:28:26;101235.16;;;23.09;58.94
60319;BME280;46163;52.306;5.634;2022-08-19T05:30:53;101243.59;;;23.08;58.86
60319;BME280;46163;52.306;5.634;2022-08-19T05:33:20;101236.25;;;23.08;58.56
60319;BME280;46163;52.306;5.634;2022-08-19T05:35:47;101238.16;;;23.08;58.51
60319;BME280;46163;52.306;5.634;2022-08-19T05:38:18;101231.13;;;23.07;58.39
60319;BME280;46163;52.306;5.634;2022-08-19T05:40:45;101235.72;;;23.06;58.62
60319;BME280;46163;52.306;5.634;2022-08-19T05:43:12;101226.78;;;23.06;58.32
60319;BME280;46163;52.306;5.634;2022-08-19T05:45:42;101230.88;;;23.03;58.32
60319;BME280;46163;52.306;5.634;2022-08-19T05:48:11;101235.72;;;23.01;58.14
60319;BME280;46163;52.306;5.634;2022-08-19T05:50:39;101246.59;;;23.01;58.74
60319;BME280;46163;52.306;5.634;2022-08-19T05:53:05;101250.94;;;23.02;58.39
60319;BME280;46163;52.306;5.634;2022-08-19T05:55:31;101252.00;;;23.01;58.44
60319;BME280;46163;52.306;5.634;2022-08-19T05:57:57;101244.69;;;23.02;58.42
60319;BME280;46163;52.306;5.634;2022-08-19T06:00:23;101248.78;;;23.04;58.88
60319;BME280;46163;52.306;5.634;2022-08-19T06:02:49;101244.16;;;23.05;58.80
60319;BME280;46163;52.306;5.634;2022-08-19T06:05:17;101237.91;;;23.04;58.77
60319;BME280;46163;52.306;5.634;2022-08-19T06:07:45;101246.88;;;23.05;58.91
60319;BME280;46163;52.306;5.634;2022-08-19T06:10:11;101244.16;;;23.05;58.63
60319;BME280;46163;52.306;5.634;2022-08-19T06:12:36;101240.34;;;23.06;59.11
60319;BME280;46163;52.306;5.634;2022-08-19T06:15:11;101231.38;;;23.00;59.18
60319;BME280;46163;52.306;5.634;2022-08-19T06:17:41;101248.22;;;23.07;59.01
60319;BME280;46163;52.306;5.634;2022-08-19T06:20:10;101250.66;;;23.09;58.85
60319;BME280;46163;52.306;5.634;2022-08-19T06:22:47;101254.16;;;23.09;58.74
60319;BME280;46163;52.306;5.634;2022-08-19T06:25:18;101257.69;;;23.10;58.78
60319;BME280;46163;52.306;5.634;2022-08-19T06:27:44;101253.94;;;23.11;58.68
60319;BME280;46163;52.306;5.634;2022-08-19T06:30:10;101257.16;;;23.13;58.83
60319;BME280;46163;52.306;5.634;2022-08-19T06:32:37;101253.66;;;23.12;58.33
60319;BME280;46163;52.306;5.634;2022-08-19T06:35:03;101252.56;;;23.13;58.71
60319;BME280;46163;52.306;5.634;2022-08-19T06:37:29;101253.09;;;23.16;58.69
60319;BME280;46163;52.306;5.634;2022-08-19T06:39:56;101252.00;;;23.17;58.56
60319;BME280;46163;52.306;5.634;2022-08-19T06:42:21;101253.63;;;23.18;58.66
60319;BME280;46163;52.306;5.634;2022-08-19T06:44:47;101256.06;;;23.19;58.40
60319;BME280;46163;52.306;5.634;2022-08-19T06:47:16;101252.28;;;23.20;58.18
60319;BME280;46163;52.306;5.634;2022-08-19T06:49:41;101244.38;;;23.19;58.12
60319;BME280;46163;52.306;5.634;2022-08-19T06:52:07;101253.09;;;23.21;58.31
60319;BME280;46163;52.306;5.634;2022-08-19T06:54:33;101247.09;;;23.24;58.44
60319;BME280;46163;52.306;5.634;2022-08-19T06:56:59;101246.00;;;23.25;58.42
60319;BME280;46163;52.306;5.634;2022-08-19T06:59:28;101239.47;;;23.26;58.14
60319;BME280;46163;52.306;5.634;2022-08-19T07:02:00;101248.16;;;23.28;58.32
60319;BME280;46163;52.306;5.634;2022-08-19T07:04:31;101241.66;;;23.29;57.89
60319;BME280;46163;52.306;5.634;2022-08-19T07:07:03;101246.00;;;23.30;58.25
60319;BME280;46163;52.306;5.634;2022-08-19T07:09:31;101251.97;;;23.32;57.80
60319;BME280;46163;52.306;5.634;2022-08-19T07:11:57;101251.16;;;23.31;58.09
60319;BME280;46163;52.306;5.634;2022-08-19T07:14:26;101254.41;;;23.33;57.73
60319;BME280;46163;52.306;5.634;2022-08-19T07:16:54;101247.88;;;23.34;57.81
60319;BME280;46163;52.306;5.634;2022-08-19T07:19:21;101248.16;;;23.33;58.07
60319;BME280;46163;52.306;5.634;2022-08-19T07:21:49;101257.41;;;23.37;57.83
60319;BME280;46163;52.306;5.634;2022-08-19T07:24:18;101252.78;;;23.37;57.85
60319;BME280;46163;52.306;5.634;2022-08-19T07:26:45;101257.94;;;23.39;58.09
60319;BME280;46163;52.306;5.634;2022-08-19T07:29:11;101256.84;;;23.40;57.84
60319;BME280;46163;52.306;5.634;2022-08-19T07:31:37;101250.59;;;23.39;57.82
60319;BME280;46163;52.306;5.634;2022-08-19T07:34:06;101256.56;;;23.41;57.71
60319;BME280;46163;52.306;5.634;2022-08-19T07:36:34;101260.09;;;23.42;58.08
60319;BME280;46163;52.306;5.634;2022-08-19T07:39:04;101262.00;;;23.41;57.69
60319;BME280;46163;52.306;5.634;2022-08-19T07:41:30;101264.69;;;23.41;57.70
60319;BME280;46163;52.306;5.634;2022-08-19T07:43:58;101253.31;;;23.39;57.58
60319;BME280;46163;52.306;5.634;2022-08-19T07:46:29;101263.59;;;23.42;57.70
60319;BME280;46163;52.306;5.634;2022-08-19T07:48:56;101269.31;;;23.41;58.02
60319;BME280;46163;52.306;5.634;2022-08-19T07:51:21;101273.66;;;23.42;57.94
60319;BME280;46163;52.306;5.634;2022-08-19T07:53:48;101265.50;;;23.42;57.75
60319;BME280;46163;52.306;5.634;2022-08-19T07:56:19;101265.50;;;23.42;57.83
60319;BME280;46163;52.306;5.634;2022-08-19T07:58:48;101269.84;;;23.43;57.62
60319;BME280;46163;52.306;5.634;2022-08-19T08:01:21;101269.31;;;23.41;57.91
60319;BME280;46163;52.306;5.634;2022-08-19T08:03:50;101273.38;;;23.44;57.71
60319;BME280;46163;52.306;5.634;2022-08-19T08:06:34;101281.53;;;23.44;57.95
60319;BME280;46163;52.306;5.634;2022-08-19T08:09:34;101290.78;;;23.42;57.64
60319;BME280;46163;52.306;5.634;2022-08-19T08:15:00;101297.53;;;23.45;57.72
60319;BME280;46163;52.306;5.634;2022-08-19T08:17:30;101300.25;;;23.45;57.89
60319;BME280;46163;52.306;5.634;2022-08-19T08:19:57;101293.78;;;23.46;57.88
60319;BME280;46163;52.306;5.634;2022-08-19T08:22:24;101302.97;;;23.45;57.90
60319;BME280;46163;52.306;5.634;2022-08-19T08:25:14;101302.97;;;23.45;57.79
60319;BME280;46163;52.306;5.634;2022-08-19T08:27:43;101295.41;;;23.37;57.65
60319;BME280;46163;52.306;5.634;2022-08-19T08:30:16;101307.88;;;23.48;58.00
60319;BME280;46163;52.306;5.634;2022-08-19T08:32:43;101307.59;;;23.50;57.93
60319;BME280;46163;52.306;5.634;2022-08-19T08:35:15;101311.94;;;23.51;57.60
60319;BME280;46163;52.306;5.634;2022-08-19T08:37:42;101314.66;;;23.51;57.50
60319;BME280;46163;52.306;5.634;2022-08-19T08:45:36;101320.38;;;23.59;57.65
60319;BME280;46163;52.306;5.634;2022-08-19T08:48:14;101332.06;;;23.60;57.25
60319;BME280;46163;52.306;5.634;2022-08-19T08:50:43;101331.50;;;23.63;57.25
60319;BME280;46163;52.306;5.634;2022-08-19T08:53:17;101336.69;;;23.64;57.33
60319;BME280;46163;52.306;5.634;2022-08-19T08:55:44;101331.78;;;23.61;57.34
60319;BME280;46163;52.306;5.634;2022-08-19T08:58:19;101339.38;;;23.64;57.33
60319;BME280;46163;52.306;5.634;2022-08-19T09:00:48;101338.28;;;23.65;57.26
60319;BME280;46163;52.306;5.634;2022-08-19T09:03:22;101339.63;;;23.68;57.37
60319;BME280;46163;52.306;5.634;2022-08-19T09:10:53;101336.13;;;23.67;57.28
60319;BME280;46163;52.306;5.634;2022-08-19T09:13:44;101333.38;;;23.73;57.07
60319;BME280;46163;52.306;5.634;2022-08-19T09:16:19;101328.78;;;23.73;56.97
60319;BME280;46163;52.306;5.634;2022-08-19T09:18:50;101330.09;;;23.76;57.03
60319;BME280;46163;52.306;5.634;2022-08-19T09:21:26;101332.03;;;23.75;57.04
60319;BME280;46163;52.306;5.634;2022-08-19T09:23:54;101335.56;;;23.76;57.20
60319;BME280;46163;52.306;5.634;2022-08-19T09:26:27;101343.13;;;23.79;56.85
60319;BME280;46163;52.306;5.634;2022-08-19T09:28:55;101332.81;;;23.81;56.76
60319;BME280;46163;52.306;5.634;2022-08-19T09:34:45;101335.78;;;23.84;57.05
60319;BME280;46163;52.306;5.634;2022-08-19T09:37:11;101331.69;;;23.87;56.86
60319;BME280;46163;52.306;5.634;2022-08-19T09:39:38;101337.13;;;23.87;56.75
60319;BME280;46163;52.306;5.634;2022-08-19T09:42:04;101336.84;;;23.88;56.85
60319;BME280;46163;52.306;5.634;2022-08-19T09:44:34;101334.94;;;23.89;56.83
60319;BME280;46163;52.306;5.634;2022-08-19T09:47:00;101339.56;;;23.88;56.85
60319;BME280;46163;52.306;5.634;2022-08-19T09:49:27;101336.03;;;23.88;56.70
60319;BME280;46163;52.306;5.634;2022-08-19T09:51:52;101343.94;;;23.89;56.60
60319;BME280;46163;52.306;5.634;2022-08-19T09:54:21;101340.94;;;23.91;56.78
60319;BME280;46163;52.306;5.634;2022-08-19T09:56:47;101345.56;;;23.90;56.64
60319;BME280;46163;52.306;5.634;2022-08-19T09:59:13;101347.19;;;23.91;56.75
60319;BME280;46163;52.306;5.634;2022-08-19T10:01:39;101347.72;;;23.93;56.65
60319;BME280;46163;52.306;5.634;2022-08-19T10:04:04;101347.44;;;23.95;56.68
60319;BME280;46163;52.306;5.634;2022-08-19T10:06:37;101337.09;;;23.97;56.33
60319;BME280;46163;52.306;5.634;2022-08-19T10:09:04;101340.91;;;24.01;56.39
60319;BME280;46163;52.306;5.634;2022-08-19T10:11:33;101338.41;;;24.05;56.42
60319;BME280;46163;52.306;5.634;2022-08-19T10:14:00;101337.88;;;24.08;56.16
60319;BME280;46163;52.306;5.634;2022-08-19T10:16:25;101340.84;;;24.11;56.11
60319;BME280;46163;52.306;5.634;2022-08-19T10:18:52;101336.75;;;24.14;56.37
60319;BME280;46163;52.306;5.634;2022-08-19T10:21:24;101339.22;;;24.15;56.17
60319;BME280;46163;52.306;5.634;2022-08-19T10:23:54;101342.19;;;24.14;56.26
60319;BME280;46163;52.306;5.634;2022-08-19T10:26:26;101342.47;;;24.17;55.94
60319;BME280;46163;52.306;5.634;2022-08-19T10:28:53;101337.56;;;24.14;55.92
60319;BME280;46163;52.306;5.634;2022-08-19T10:31:23;101337.03;;;24.17;55.98
60319;BME280;46163;52.306;5.634;2022-08-19T10:33:51;101338.06;;;24.21;55.83
60319;BME280;46163;52.306;5.634;2022-08-19T10:36:26;101339.69;;;24.22;55.80
60319;BME280;46163;52.306;5.634;2022-08-19T10:38:53;101331.53;;;24.28;55.92
60319;BME280;46163;52.306;5.634;2022-08-19T10:41:23;101332.06;;;24.30;55.56
60319;BME280;46163;52.306;5.634;2022-08-19T10:43:54;101333.41;;;24.32;55.74
60319;BME280;46163;52.306;5.634;2022-08-19T10:46:22;101330.97;;;24.36;55.52
60319;BME280;46163;52.306;5.634;2022-08-19T10:48:48;101326.88;;;24.38;55.56
60319;BME280;46163;52.306;5.634;2022-08-19T10:51:41;101329.59;;;24.38;55.60
60319;BME280;46163;52.306;5.634;2022-08-19T10:54:26;101318.69;;;24.38;55.41
60319;BME280;46163;52.306;5.634;2022-08-19T10:57:12;101323.34;;;24.38;55.53
60319;BME280;46163;52.306;5.634;2022-08-19T10:59:37;101317.38;;;24.36;55.45
60319;BME280;46163;52.306;5.634;2022-08-19T11:02:06;101319.00;;;24.37;55.55
60319;BME280;46163;52.306;5.634;2022-08-19T11:04:33;101306.19;;;24.37;55.70
60319;BME280;46163;52.306;5.634;2022-08-19T11:07:02;101305.91;;;24.39;55.68
60319;BME280;46163;52.306;5.634;2022-08-19T11:09:30;101314.59;;;24.41;55.46
60319;BME280;46163;52.306;5.634;2022-08-19T11:11:56;101303.97;;;24.44;55.45
60319;BME280;46163;52.306;5.634;2022-08-19T11:14:22;101309.13;;;24.46;55.47
60319;BME280;46163;52.306;5.634;2022-08-19T11:16:49;101302.88;;;24.50;55.31
60319;BME280;46163;52.306;5.634;2022-08-19T11:19:16;101291.41;;;24.53;55.27
60319;BME280;46163;52.306;5.634;2022-08-19T11:21:46;101294.41;;;24.52;55.17
60319;BME280;46163;52.306;5.634;2022-08-19T11:24:19;101298.69;;;24.58;55.15
60319;BME280;46163;52.306;5.634;2022-08-19T11:26:46;101293.22;;;24.63;55.17
60319;BME280;46163;52.306;5.634;2022-08-19T11:29:15;101296.19;;;24.67;55.49
60319;BME280;46163;52.306;5.634;2022-08-19T11:31:42;101296.47;;;24.70;55.34
60319;BME280;46163;52.306;5.634;2022-08-19T11:34:12;101293.16;;;24.73;55.27
60319;BME280;46163;52.306;5.634;2022-08-19T11:36:41;101298.06;;;24.71;55.35
60319;BME280;46163;52.306;5.634;2022-08-19T11:39:09;101297.56;;;24.69;55.27
60319;BME280;46163;52.306;5.634;2022-08-19T11:41:38;101288.00;;;24.72;55.32
60319;BME280;46163;52.306;5.634;2022-08-19T11:44:06;101291.78;;;24.76;55.21
60319;BME280;46163;52.306;5.634;2022-08-19T11:46:33;101293.13;;;24.78;55.00
60319;BME280;46163;52.306;5.634;2022-08-19T11:49:00;101290.94;;;24.80;54.97
60319;BME280;46163;52.306;5.634;2022-08-19T11:51:26;101284.09;;;24.83;55.02
60319;BME280;46163;52.306;5.634;2022-08-19T11:53:53;101294.13;;;24.88;55.07
60319;BME280;46163;52.306;5.634;2022-08-19T11:56:20;101292.50;;;24.87;55.19
60319;BME280;46163;52.306;5.634;2022-08-19T11:58:47;101283.47;;;24.91;55.17
60319;BME280;46163;52.306;5.634;2022-08-19T12:01:15;101284.28;;;24.92;55.10
60319;BME280;46163;52.306;5.634;2022-08-19T12:03:42;101289.19;;;24.95;55.01
60319;BME280;46163;52.306;5.634;2022-08-19T12:06:12;101288.59;;;24.98;54.94
60319;BME280;46163;52.306;5.634;2022-08-19T12:08:42;101287.50;;;24.99;55.12
60319;BME280;46163;52.306;5.634;2022-08-19T12:11:08;101289.94;;;25.00;55.12
60319;BME280;46163;52.306;5.634;2022-08-19T12:13:34;101289.13;;;25.00;55.26
60319;BME280;46163;52.306;5.634;2022-08-19T12:16:01;101288.81;;;25.01;55.27
60319;BME280;46163;52.306;5.634;2022-08-19T12:18:32;101289.41;;;25.03;55.10
60319;BME280;46163;52.306;5.634;2022-08-19T12:21:07;101280.13;;;25.04;54.95
60319;BME280;46163;52.306;5.634;2022-08-19T12:23:33;101284.47;;;25.05;55.04
60319;BME280;46163;52.306;5.634;2022-08-19T12:25:58;101281.16;;;25.08;55.03
60319;BME280;46163;52.306;5.634;2022-08-19T12:28:25;101287.44;;;25.09;55.10
60319;BME280;46163;52.306;5.634;2022-08-19T12:30:51;101279.03;;;25.05;55.27
60319;BME280;46163;52.306;5.634;2022-08-19T12:33:18;101282.56;;;25.06;55.49
60319;BME280;46163;52.306;5.634;2022-08-19T12:35:46;101287.19;;;25.05;55.36
60319;BME280;46163;52.306;5.634;2022-08-19T12:38:14;101271.75;;;24.96;55.39
60319;BME280;46163;52.306;5.634;2022-08-19T12:40:41;101279.84;;;25.01;55.49
60319;BME280;46163;52.306;5.634;2022-08-19T12:43:10;101280.44;;;24.98;55.63
60319;BME280;46163;52.306;5.634;2022-08-19T12:45:36;101289.69;;;24.97;55.52
60319;BME280;46163;52.306;5.634;2022-08-19T12:48:03;101281.00;;;24.95;55.74
60319;BME280;46163;52.306;5.634;2022-08-19T12:50:30;101291.34;;;24.93;55.88
60319;BME280;46163;52.306;5.634;2022-08-19T12:52:58;101287.59;;;24.89;55.60
60319;BME280;46163;52.306;5.634;2022-08-19T12:55:23;101293.84;;;24.89;55.74
60319;BME280;46163;52.306;5.634;2022-08-19T12:57:50;101291.72;;;24.86;55.75
60319;BME280;46163;52.306;5.634;2022-08-19T13:00:18;101299.88;;;24.86;56.31
60319;BME280;46163;52.306;5.634;2022-08-19T13:02:47;101297.16;;;24.86;56.13
60319;BME280;46163;52.306;5.634;2022-08-19T13:05:20;101297.41;;;24.85;56.17
60319;BME280;46163;52.306;5.634;2022-08-19T13:07:47;101290.34;;;24.84;56.28
60319;BME280;46163;52.306;5.634;2022-08-19T13:10:16;101297.41;;;24.85;56.25
60319;BME280;46163;52.306;5.634;2022-08-19T13:12:47;101303.16;;;24.83;56.69
60319;BME280;46163;52.306;5.634;2022-08-19T13:15:14;101314.03;;;24.83;57.00
60319;BME280;46163;52.306;5.634;2022-08-19T13:17:40;101309.41;;;24.84;56.85
60319;BME280;46163;52.306;5.634;2022-08-19T13:20:08;101314.63;;;24.80;56.85
60319;BME280;46163;52.306;5.634;2022-08-19T13:22:34;101316.47;;;24.85;56.69
60319;BME280;46163;52.306;5.634;2022-08-19T13:25:05;101321.66;;;24.86;56.80